This is the latest recevied weather packets stored in our database for station/object EA3IBE-10. If no packets are shown the sender has not sent any weather packets the latest 10 day(s).
| Time | Temp. | Humidity | Pressure | Rain* | Wind** | Luminosity | Snow |
|---|---|---|---|---|---|---|---|
| 1777642162 | 25.56° C | 43% | 1019.6 hPa | - | - | - | - |
| 1777639762 | 27.22° C | 40% | 1019.7 hPa | - | - | - | - |
| 1777637362 | 27.22° C | 40% | 1019.8 hPa | - | - | - | - |
| 1777634962 | 27.78° C | 39% | 1019.9 hPa | - | - | - | - |
| 1777632562 | 26.67° C | 42% | 1020.2 hPa | - | - | - | - |
| 1777630162 | 25.56° C | 44% | 1020.4 hPa | - | - | - | - |
| 1777627762 | 26.67° C | 39% | 1020.3 hPa | - | - | - | - |
| 1777625362 | 29.44° C | 37% | 1020.1 hPa | - | - | - | - |
| 1777622962 | 25.56° C | 46% | 1019.6 hPa | - | - | - | - |
| 1777620561 | 23.89° C | 53% | 1019.4 hPa | - | - | - | - |
| 1777618161 | 21.11° C | 67% | 1019.2 hPa | - | - | - | - |
| 1777615761 | 14.44° C | 100% | 1018.7 hPa | - | - | - | - |
| 1777613361 | 12.78° C | 100% | 1018.6 hPa | - | - | - | - |
| 1777610961 | 11.67° C | 100% | 1018.4 hPa | - | - | - | - |
| 1777608561 | 12.22° C | 100% | 1018.3 hPa | - | - | - | - |
| 1777606161 | 12.22° C | 100% | 1018.2 hPa | - | - | - | - |
| 1777603761 | 12.22° C | 100% | 1017.9 hPa | - | - | - | - |
| 1777601361 | 12.22° C | 100% | 1018.1 hPa | - | - | - | - |
| 1777598961 | 12.78° C | 100% | 1018 hPa | - | - | - | - |
| 1777596560 | 13.33° C | 100% | 1018.1 hPa | - | - | - | - |
| 1777594160 | 13.33° C | 100% | 1018.1 hPa | - | - | - | - |
| 1777591760 | 13.89° C | 100% | 1017.8 hPa | - | - | - | - |
| 1777589360 | 13.89° C | 100% | 1017.2 hPa | - | - | - | - |
| 1777586960 | 14.44° C | 100% | 1017.1 hPa | - | - | - | - |
| 1777584560 | 15° C | 100% | 1017.1 hPa | - | - | - | - |
* Rain since midnight (hover to see other rain measurements)
** Current wind speed in m/s (hover to see current wind gust speed)